createdAt,value
2022-11-30T00:01:46.360Z,8.70
2022-11-30T00:05:01.379Z,9.20
2022-11-30T00:08:01.469Z,8.97
2022-11-30T00:11:27.415Z,7.77
2022-11-30T00:14:27.457Z,8.23
2022-11-30T00:17:42.455Z,8.40
2022-11-30T00:20:54.434Z,8.37
2022-11-30T00:24:06.452Z,9.17
2022-11-30T00:27:20.453Z,8.40
2022-11-30T00:30:44.600Z,8.60
2022-11-30T00:34:00.450Z,8.33
2022-11-30T00:37:12.546Z,8.57
2022-11-30T00:40:12.557Z,8.03
2022-11-30T00:43:37.492Z,9.23
2022-11-30T00:46:37.516Z,8.60
2022-11-30T00:49:49.547Z,8.50
2022-11-30T00:52:49.635Z,9.17
2022-11-30T00:56:13.547Z,9.90
2022-11-30T00:59:26.548Z,8.67
2022-11-30T01:02:41.629Z,9.60
2022-11-30T01:05:53.617Z,9.13
2022-11-30T01:09:06.570Z,9.43
2022-11-30T01:12:06.566Z,9.53
2022-11-30T01:15:32.641Z,9.43
2022-11-30T01:18:32.637Z,9.57
2022-11-30T01:21:48.630Z,10.00
2022-11-30T01:24:48.947Z,9.83
2022-11-30T01:28:13.706Z,9.83
2022-11-30T01:31:27.709Z,10.10
2022-11-30T01:34:39.760Z,10.00
2022-11-30T01:37:52.743Z,10.83
2022-11-30T01:41:05.662Z,9.70
2022-11-30T01:44:20.663Z,11.67
2022-11-30T01:47:46.700Z,11.57
2022-11-30T01:50:58.755Z,11.65
2022-11-30T01:54:22.725Z,13.30
2022-11-30T01:57:34.809Z,11.53
2022-11-30T02:00:47.757Z,10.93
2022-11-30T02:04:16.725Z,12.60
2022-11-30T02:07:28.922Z,11.50
2022-11-30T02:10:52.763Z,13.10
2022-11-30T02:14:13.779Z,12.30
2022-11-30T02:17:38.795Z,13.17
2022-11-30T02:20:56.783Z,11.70
2022-11-30T02:24:23.798Z,11.80
2022-11-30T02:27:38.879Z,11.87
2022-11-30T02:31:04.837Z,12.65
2022-11-30T02:34:16.916Z,12.73
2022-11-30T02:37:40.871Z,12.97
2022-11-30T02:40:40.951Z,12.43
2022-11-30T02:43:52.893Z,11.97
2022-11-30T02:47:07.965Z,12.43
2022-11-30T02:50:35.846Z,12.00
2022-11-30T02:53:47.892Z,12.70
2022-11-30T02:56:59.880Z,11.97
2022-11-30T03:00:11.998Z,13.00
2022-11-30T03:03:36.902Z,12.47
2022-11-30T03:06:36.977Z,12.53
2022-11-30T03:09:48.931Z,11.73
2022-11-30T03:13:01.033Z,12.27
2022-11-30T03:16:29.952Z,10.90
2022-11-30T03:19:44.019Z,11.80
2022-11-30T03:22:55.971Z,12.47
2022-11-30T03:25:56.011Z,11.40
2022-11-30T03:29:08.066Z,12.03
2022-11-30T03:32:08.029Z,11.90
2022-11-30T03:35:34.081Z,10.70
2022-11-30T03:38:34.078Z,11.93
2022-11-30T03:41:46.082Z,10.67
2022-11-30T03:44:49.230Z,10.40
2022-11-30T03:48:01.134Z,11.97
2022-11-30T03:51:14.140Z,9.90
2022-11-30T03:54:26.168Z,11.65
2022-11-30T03:57:29.188Z,11.53
2022-11-30T04:00:41.152Z,11.80
2022-11-30T04:04:05.164Z,10.63
2022-11-30T04:07:21.193Z,11.97
2022-11-30T04:10:33.145Z,11.45
2022-11-30T04:13:45.200Z,11.23
2022-11-30T04:16:57.233Z,10.80
2022-11-30T04:19:57.167Z,11.47
2022-11-30T04:23:24.153Z,10.87
2022-11-30T04:26:36.204Z,12.43
2022-11-30T04:29:48.221Z,11.87
2022-11-30T04:32:48.283Z,11.33
2022-11-30T04:36:12.253Z,13.47
2022-11-30T04:39:26.225Z,11.47
2022-11-30T04:42:38.248Z,13.30
2022-11-30T04:45:39.271Z,11.43
2022-11-30T04:48:51.217Z,11.73
2022-11-30T04:51:54.266Z,11.60
2022-11-30T04:55:23.300Z,12.03
2022-11-30T04:58:35.299Z,11.00
2022-11-30T05:01:51.402Z,11.47
2022-11-30T05:05:03.320Z,11.33
2022-11-30T05:08:16.394Z,12.00
2022-11-30T05:11:30.380Z,11.43
2022-11-30T05:14:43.304Z,11.50
2022-11-30T05:17:43.441Z,11.93
2022-11-30T05:21:11.380Z,11.47
2022-11-30T05:24:23.338Z,10.53
2022-11-30T05:27:49.362Z,11.60
2022-11-30T05:31:05.528Z,11.20
2022-11-30T05:34:17.411Z,11.90
2022-11-30T05:37:21.442Z,11.03
2022-11-30T05:40:37.402Z,11.57
2022-11-30T05:43:53.439Z,10.33
2022-11-30T05:47:05.525Z,10.77
2022-11-30T05:50:05.477Z,10.50
2022-11-30T05:53:17.476Z,10.57
2022-11-30T05:56:29.513Z,10.73
2022-11-30T06:00:00.435Z,10.10
2022-11-30T06:03:12.588Z,11.53
2022-11-30T06:06:12.458Z,10.70
2022-11-30T06:09:24.562Z,11.53
2022-11-30T06:12:24.596Z,10.43
2022-11-30T06:15:49.527Z,10.63
2022-11-30T06:19:01.578Z,9.87
2022-11-30T06:22:16.545Z,10.60
2022-11-30T06:25:17.629Z,10.77
2022-11-30T06:28:30.720Z,9.73
2022-11-30T06:31:44.664Z,9.87
2022-11-30T06:34:57.708Z,10.53
2022-11-30T06:38:09.648Z,10.05
2022-11-30T06:41:33.654Z,10.00
2022-11-30T06:44:33.590Z,9.83
2022-11-30T06:47:59.692Z,10.53
2022-11-30T06:50:59.616Z,8.97
2022-11-30T06:54:12.639Z,9.33
2022-11-30T06:57:15.703Z,8.53
2022-11-30T07:00:28.682Z,9.67
2022-11-30T07:03:41.688Z,8.97
2022-11-30T07:06:53.682Z,8.23
2022-11-30T07:09:53.734Z,8.47
2022-11-30T07:13:06.713Z,8.40
2022-11-30T07:16:06.841Z,8.67
2022-11-30T07:19:33.724Z,8.20
2022-11-30T07:22:45.713Z,8.07
2022-11-30T07:26:20.824Z,9.37
2022-11-30T07:29:20.735Z,7.50
2022-11-30T07:32:32.826Z,7.47
2022-11-30T07:35:46.841Z,8.77
2022-11-30T07:39:10.855Z,8.57
2022-11-30T07:42:10.773Z,8.63
2022-11-30T07:45:23.891Z,8.37
2022-11-30T07:48:47.807Z,8.13
2022-11-30T07:52:13.827Z,8.77
2022-11-30T07:55:13.895Z,9.60
2022-11-30T07:58:28.894Z,8.83
2022-11-30T08:01:40.974Z,8.47
2022-11-30T08:04:56.918Z,9.07
2022-11-30T08:08:09.924Z,8.73
2022-11-30T08:11:34.023Z,8.43
2022-11-30T08:14:50.447Z,7.57
2022-11-30T08:17:47.874Z,7.97
2022-11-30T08:20:50.096Z,8.23
2022-11-30T08:24:14.149Z,9.03
2022-11-30T08:27:13.987Z,8.20
2022-11-30T08:30:32.428Z,8.63
2022-11-30T08:33:30.890Z,8.25
2022-11-30T08:36:52.974Z,7.60
2022-11-30T08:40:07.040Z,6.97
2022-11-30T08:43:19.029Z,7.77
2022-11-30T08:49:44.072Z,8.00
2022-11-30T08:52:44.066Z,8.50
2022-11-30T08:56:08.998Z,7.97
2022-11-30T08:59:21.071Z,7.23
2022-11-30T09:02:33.098Z,8.33
2022-11-30T09:05:33.270Z,7.60
2022-11-30T09:08:45.073Z,8.27
2022-11-30T09:11:59.122Z,8.50
2022-11-30T09:15:12.128Z,7.20
2022-11-30T09:18:12.164Z,7.37
2022-11-30T09:21:36.109Z,7.80
2022-11-30T09:24:36.118Z,7.47
2022-11-30T09:28:01.122Z,8.30
2022-11-30T09:31:01.233Z,8.60
2022-11-30T09:34:13.185Z,8.20
2022-11-30T09:37:13.205Z,7.33
2022-11-30T09:40:38.146Z,7.60
2022-11-30T09:43:54.256Z,7.17
2022-11-30T09:47:19.175Z,7.70
2022-11-30T09:50:34.162Z,7.10
2022-11-30T09:53:59.249Z,7.60
2022-11-30T09:57:11.222Z,7.30
2022-11-30T10:00:37.257Z,6.13
2022-11-30T10:03:52.318Z,6.53
2022-11-30T10:07:06.292Z,7.63
2022-11-30T10:10:34.332Z,6.83
2022-11-30T10:13:50.291Z,7.07
2022-11-30T10:17:16.397Z,7.47
2022-11-30T10:20:30.318Z,6.53
2022-11-30T10:23:56.336Z,6.70
2022-11-30T10:27:08.296Z,7.53
2022-11-30T10:30:37.443Z,7.00
2022-11-30T10:33:51.363Z,6.93
2022-11-30T10:37:16.321Z,7.20
2022-11-30T10:40:28.354Z,6.57
2022-11-30T10:43:52.374Z,6.90
2022-11-30T10:47:04.348Z,7.27
2022-11-30T10:50:34.365Z,7.17
2022-11-30T10:53:46.504Z,6.77
2022-11-30T10:57:14.425Z,6.60
2022-11-30T11:00:26.424Z,6.73
2022-11-30T11:03:50.491Z,6.73
2022-11-30T11:07:05.521Z,6.80
2022-11-30T11:10:29.468Z,7.00
2022-11-30T11:13:41.443Z,7.40
2022-11-30T11:17:15.461Z,7.53
2022-11-30T11:20:31.527Z,7.53
2022-11-30T11:23:57.614Z,7.63
2022-11-30T11:27:16.562Z,7.53
2022-11-30T11:30:40.624Z,9.07
2022-11-30T11:33:52.574Z,7.20
2022-11-30T11:37:28.516Z,8.20
2022-11-30T11:40:42.600Z,7.73
2022-11-30T11:44:06.608Z,7.43
2022-11-30T11:47:18.598Z,7.57
2022-11-30T11:51:08.559Z,7.77
2022-11-30T11:54:05.740Z,8.20
2022-11-30T11:57:31.582Z,8.17
2022-11-30T12:00:44.624Z,8.03
2022-11-30T12:04:10.624Z,8.67
2022-11-30T12:07:22.714Z,10.07
2022-11-30T12:10:52.630Z,10.63
2022-11-30T12:14:04.695Z,8.93
2022-11-30T12:17:33.640Z,9.90
2022-11-30T12:20:45.712Z,9.60
2022-11-30T12:24:28.727Z,10.20
2022-11-30T12:27:41.728Z,14.33
2022-11-30T12:31:07.802Z,9.73
2022-11-30T12:34:22.693Z,11.20
2022-11-30T12:37:48.020Z,11.60
2022-11-30T12:41:00.760Z,12.00
2022-11-30T12:44:27.753Z,11.63
2022-11-30T12:47:43.801Z,11.57
2022-11-30T12:51:10.907Z,12.67
2022-11-30T12:54:23.822Z,13.93
2022-11-30T12:57:47.787Z,12.77
2022-11-30T13:01:03.828Z,13.13
2022-11-30T13:04:29.806Z,12.33
2022-11-30T13:07:43.008Z,12.47
2022-11-30T13:11:06.847Z,13.57
2022-11-30T13:14:18.793Z,13.57
2022-11-30T13:17:45.862Z,12.87
2022-11-30T13:21:11.816Z,12.83
2022-11-30T13:24:35.943Z,12.83
2022-11-30T13:27:47.834Z,14.83
2022-11-30T13:31:12.947Z,14.27
2022-11-30T13:34:24.837Z,12.83
2022-11-30T13:37:58.266Z,17.70
2022-11-30T13:41:04.938Z,16.93
2022-11-30T13:44:29.981Z,13.80
2022-11-30T13:47:41.976Z,14.43
2022-11-30T13:51:05.979Z,15.40
2022-11-30T13:54:27.840Z,14.47
2022-11-30T13:57:46.945Z,15.87
2022-11-30T14:01:24.960Z,15.33
2022-11-30T14:04:54.026Z,13.30
2022-11-30T14:08:05.982Z,18.20
2022-11-30T14:11:38.060Z,15.50
2022-11-30T14:15:06.977Z,16.30
2022-11-30T14:18:31.058Z,15.43
2022-11-30T14:21:45.002Z,17.53
2022-11-30T14:25:09.096Z,15.37
2022-11-30T14:28:21.054Z,17.03
2022-11-30T14:31:47.123Z,15.03
2022-11-30T14:35:00.209Z,17.83
2022-11-30T14:38:24.156Z,16.30
2022-11-30T14:41:45.155Z,16.27
2022-11-30T14:45:09.095Z,16.73
2022-11-30T14:48:30.124Z,16.37
2022-11-30T14:51:56.139Z,16.27
2022-11-30T14:55:10.223Z,17.37
2022-11-30T14:58:38.155Z,16.87
2022-11-30T15:01:53.192Z,17.10
2022-11-30T15:05:20.191Z,18.57
2022-11-30T15:08:33.242Z,16.57
2022-11-30T15:11:57.189Z,16.90
2022-11-30T15:15:12.256Z,19.37
2022-11-30T15:18:37.294Z,16.90
2022-11-30T15:21:53.209Z,17.20
2022-11-30T15:25:05.293Z,18.00
2022-11-30T15:28:20.272Z,20.73
2022-11-30T15:31:44.434Z,17.33
2022-11-30T15:34:57.064Z,16.13
2022-11-30T15:38:22.376Z,16.67
2022-11-30T15:41:38.304Z,20.33
2022-11-30T15:45:03.306Z,17.23
2022-11-30T15:48:18.360Z,17.53
2022-11-30T15:51:43.321Z,17.50
2022-11-30T15:55:12.399Z,17.53
2022-11-30T15:58:48.356Z,18.67
2022-11-30T16:02:14.588Z,18.43
2022-11-30T16:05:48.350Z,21.07
2022-11-30T16:08:48.358Z,18.57
2022-11-30T16:12:15.438Z,17.00
2022-11-30T16:15:31.400Z,18.30
2022-11-30T16:18:55.390Z,17.67
2022-11-30T16:22:07.385Z,16.87
2022-11-30T16:25:20.375Z,17.87
2022-11-30T16:28:34.507Z,17.63
2022-11-30T16:31:58.618Z,18.30
2022-11-30T16:34:58.461Z,17.27
2022-11-30T16:38:10.457Z,17.77
2022-11-30T16:41:24.524Z,17.80
2022-11-30T16:44:51.497Z,17.43
2022-11-30T16:48:07.540Z,18.67
2022-11-30T16:51:35.444Z,17.37
2022-11-30T16:54:35.574Z,17.80
2022-11-30T16:57:48.483Z,17.67
2022-11-30T17:01:02.606Z,17.33
2022-11-30T17:04:29.571Z,18.73
2022-11-30T17:07:29.585Z,17.60
2022-11-30T17:10:44.599Z,17.23
2022-11-30T17:13:47.565Z,15.57
2022-11-30T17:17:13.636Z,17.60
2022-11-30T17:20:13.595Z,17.77
2022-11-30T17:23:25.559Z,19.87
2022-11-30T17:26:37.575Z,17.07
2022-11-30T17:29:49.683Z,18.07
2022-11-30T17:33:03.673Z,19.60
2022-11-30T17:36:27.598Z,18.60
2022-11-30T17:39:28.762Z,18.15
2022-11-30T17:42:40.653Z,17.30
2022-11-30T17:45:53.659Z,17.27
2022-11-30T17:49:19.668Z,17.53
2022-11-30T17:52:19.709Z,16.63
2022-11-30T17:55:32.703Z,17.67
2022-11-30T17:58:36.081Z,18.73
2022-11-30T18:01:44.752Z,16.60
2022-11-30T18:05:10.711Z,19.13
2022-11-30T18:08:22.716Z,18.67
2022-11-30T18:11:47.728Z,17.47
2022-11-30T18:14:48.109Z,16.93
2022-11-30T18:17:59.771Z,16.50
2022-11-30T18:21:12.751Z,17.75
2022-11-30T18:24:26.098Z,21.93
2022-11-30T18:27:25.777Z,17.70
2022-11-30T18:30:38.868Z,22.73
2022-11-30T18:33:53.897Z,18.87
2022-11-30T18:37:19.837Z,16.93
2022-11-30T18:40:20.856Z,19.07
2022-11-30T18:43:32.918Z,19.50
2022-11-30T18:46:44.957Z,20.05
2022-11-30T18:49:56.899Z,18.00
2022-11-30T18:53:13.838Z,18.67
2022-11-30T18:56:38.857Z,18.30
2022-11-30T18:59:38.858Z,19.53
2022-11-30T19:02:51.076Z,19.20
2022-11-30T19:05:51.898Z,19.00
2022-11-30T19:09:16.928Z,19.83
2022-11-30T19:12:17.975Z,18.83
2022-11-30T19:15:30.885Z,19.77
2022-11-30T19:18:30.946Z,21.77
2022-11-30T19:21:42.994Z,18.90
2022-11-30T19:24:55.937Z,17.17
2022-11-30T19:28:08.029Z,17.23
2022-11-30T19:31:07.985Z,18.00
2022-11-30T19:34:31.972Z,16.73
2022-11-30T19:37:44.053Z,18.17
2022-11-30T19:41:10.074Z,17.77
2022-11-30T19:44:22.147Z,16.83
2022-11-30T19:47:33.987Z,17.77
2022-11-30T19:50:46.127Z,17.70
2022-11-30T19:54:10.059Z,16.40
2022-11-30T19:57:24.081Z,16.83
2022-11-30T20:00:49.034Z,17.80
2022-11-30T20:04:13.144Z,17.87
2022-11-30T20:07:25.255Z,17.93
2022-11-30T20:10:37.051Z,16.63
2022-11-30T20:13:54.059Z,14.47
2022-11-30T20:17:06.110Z,17.43
2022-11-30T20:20:06.149Z,17.80
2022-11-30T20:23:30.100Z,17.70
2022-11-30T20:26:45.167Z,16.73
2022-11-30T20:30:10.180Z,17.77
2022-11-30T20:33:13.217Z,15.70
2022-11-30T20:36:37.280Z,15.93
2022-11-30T20:39:41.126Z,16.17
2022-11-30T20:42:49.317Z,16.00
2022-11-30T20:46:03.371Z,16.60
2022-11-30T20:49:28.275Z,15.83
2022-11-30T20:52:40.292Z,14.70
2022-11-30T20:55:52.270Z,16.90
2022-11-30T20:59:06.126Z,17.00
2022-11-30T21:02:32.285Z,17.50
2022-11-30T21:05:45.281Z,17.35
2022-11-30T21:09:09.322Z,16.10
2022-11-30T21:12:09.569Z,15.70
2022-11-30T21:15:24.379Z,16.27
2022-11-30T21:18:38.341Z,15.70
2022-11-30T21:21:50.372Z,17.60
2022-11-30T21:24:50.497Z,19.67
2022-11-30T21:28:17.389Z,16.63
2022-11-30T21:31:17.342Z,20.40
2022-11-30T21:34:43.348Z,19.77
2022-11-30T21:37:43.417Z,18.20
2022-11-30T21:40:55.397Z,18.40
2022-11-30T21:43:55.361Z,18.30
2022-11-30T21:47:07.455Z,16.93
2022-11-30T21:50:26.949Z,17.43
2022-11-30T21:53:36.469Z,17.87
2022-11-30T21:56:52.424Z,18.17
2022-11-30T22:00:05.433Z,16.97
2022-11-30T22:03:19.566Z,15.90
2022-11-30T22:06:31.463Z,16.83
2022-11-30T22:09:43.491Z,18.60
2022-11-30T22:12:43.482Z,17.90
2022-11-30T22:15:58.513Z,16.90
2022-11-30T22:19:10.548Z,16.00
2022-11-30T22:22:37.548Z,17.67
2022-11-30T22:25:37.572Z,16.90
2022-11-30T22:29:04.591Z,16.95
2022-11-30T22:32:16.558Z,17.07
2022-11-30T22:35:29.624Z,17.37
2022-11-30T22:38:43.610Z,18.47
2022-11-30T22:42:07.590Z,17.00
2022-11-30T22:45:07.559Z,17.10
2022-11-30T22:48:19.788Z,17.17
2022-11-30T22:51:34.655Z,19.57
2022-11-30T22:55:00.702Z,15.53
2022-11-30T22:58:00.705Z,16.47
2022-11-30T23:01:31.613Z,16.93
2022-11-30T23:04:43.649Z,16.97
2022-11-30T23:07:55.752Z,17.37
2022-11-30T23:11:09.745Z,17.13
2022-11-30T23:14:22.698Z,15.13
2022-11-30T23:17:25.669Z,20.27
2022-11-30T23:20:37.686Z,16.73
2022-11-30T23:23:37.748Z,17.30
2022-11-30T23:27:04.683Z,16.10
2022-11-30T23:30:04.784Z,15.73
2022-11-30T23:33:16.726Z,18.20
2022-11-30T23:36:29.765Z,19.83
2022-11-30T23:39:41.708Z,18.13
2022-11-30T23:42:55.741Z,17.77
2022-11-30T23:46:08.766Z,16.47
2022-11-30T23:49:08.771Z,17.60
2022-11-30T23:52:20.765Z,18.10
2022-11-30T23:55:21.778Z,19.30
2022-11-30T23:58:47.762Z,19.30
